Time;durP1;ratioP1;P1;durP2;ratioP2;P2;SDS_P1;SDS_P2;PMS_P1;PMS_P2;Temp;Humidity;BMP_temperature;BMP_pressure;BME280_temperature;BME280_humidity;BME280_pressure;Samples;Min_cycle;Max_cycle;Signal;HPM_P1;HPM_P2
2021/12/20 00:00:40;;;;;;;;;;;;;;;;;;5153574;27;978;-61
2021/12/20 00:03:05;;;;;;;;;;;;;;;;;;5154451;27;880;-61
2021/12/20 00:05:30;;;;;;;;;;;;;;;;;;5153623;27;1902;-60
2021/12/20 00:07:56;;;;;;;;;;;;;;;;;;5135366;27;831;-61
2021/12/20 00:10:21;;;;;;;;;;;;;;;;;;5153353;27;954;-61
2021/12/20 00:12:47;;;;;;;;;;;;;;;;;;5134893;27;1344;-61
2021/12/20 00:15:12;;;;;;;;;;;;;;;;;;5154134;27;816;-61
2021/12/20 00:17:38;;;;;;;;;;;;;;;;;;5134275;27;880;-61
2021/12/20 00:20:04;;;;;;;;;;;;;;;;;;5153430;27;829;-61
2021/12/20 00:22:29;;;;;;;;;;;;;;;;;;5153222;27;844;-61
2021/12/20 00:24:54;;;;;;;;;;;;;;;;;;5152612;27;1977;-61
2021/12/20 00:27:19;;;;;;;;;;;;;;;;;;5153314;27;848;-61
2021/12/20 00:29:49;;;;;;;;;;;;;;;;;;5152782;27;986;-61
2021/12/20 00:32:15;;;;;;;;;;;;;;;;;;5134996;27;1404;-61
2021/12/20 00:34:41;;;;;;;;;;;;;;;;;;5152729;27;866;-61
2021/12/20 00:40:19;;;;;;;;;;;;;;;;;;5153198;27;891;-61
2021/12/20 00:42:36;;;;;;;;;;;;;;;;;;5153261;27;698;-61
2021/12/20 00:45:02;;;;;;;;;;;;;;;;;;5152461;27;1968;-61
2021/12/20 00:47:27;;;;;;;;;;;;;;;;;;5134482;27;1084;-61
2021/12/20 00:49:52;;;;;;;;;;;;;;;;;;5152367;27;824;-61
2021/12/20 00:52:20;;;;;;;;;;;;;;;;;;5152907;27;891;-61
2021/12/20 00:54:45;;;;;;;;;;;;;;;;;;5152802;27;855;-61
2021/12/20 00:57:10;;;;;;;;;;;;;;;;;;5153764;27;753;-61
2021/12/20 00:59:35;;;;;;;;;;;;;;;;;;5153036;27;994;-61
2021/12/20 01:02:01;;;;;;;;;;;;;;;;;;5153021;27;982;-61
2021/12/20 01:04:26;;;;;;;;;;;;;;;;;;5153151;27;1910;-61
2021/12/20 01:06:51;;;;;;;;;;;;;;;;;;5152664;27;891;-61
2021/12/20 01:09:16;;;;;;;;;;;;;;;;;;5153402;27;828;-61
2021/12/20 01:11:43;;;;;;;;;;;;;;;;;;5152635;27;808;-61
2021/12/20 01:14:08;;;;;;;;;;;;;;;;;;5153290;27;858;-61
2021/12/20 01:16:34;;;;;;;;;;;;;;;;;;5152774;27;884;-61
2021/12/20 01:18:59;;;;;;;;;;;;;;;;;;5152700;27;781;-61
2021/12/20 01:21:25;;;;;;;;;;;;;;;;;;5151838;27;848;-61
2021/12/20 01:23:51;;;;;;;;;;;;;;;;;;5152051;27;1901;-61
2021/12/20 01:26:16;;;;;;;;;;;;;;;;;;5134549;27;855;-60
2021/12/20 01:28:43;;;;;;;;;;;;;;;;;;5114215;28;1201;-61
2021/12/20 01:31:08;;;;;;;;;;;;;;;;;;5113463;28;883;-61
2021/12/20 01:33:34;;;;;;;;;;;;;;;;;;5132167;28;734;-61
2021/12/20 01:35:59;;;;;;;;;;;;;;;;;;5131124;28;989;-61
2021/12/20 01:38:24;;;;;;;;;;;;;;;;;;5132021;28;852;-61
2021/12/20 01:40:50;;;;;;;;;;;;;;;;;;5131130;28;820;-61
2021/12/20 01:43:16;;;;;;;;;;;;;;;;;;5113187;28;840;-60
2021/12/20 01:45:43;;;;;;;;;;;;;;;;;;5131216;28;1972;-61
2021/12/20 01:48:12;;;;;;;;;;;;;;;;;;5131348;28;1145;-61
2021/12/20 01:53:24;;;;;;;;;;;;;;;;;;5131598;28;701;-60
2021/12/20 01:55:50;;;;;;;;;;;;;;;;;;5130658;28;836;-61
2021/12/20 01:58:16;;;;;;;;;;;;;;;;;;5131574;28;847;-61
2021/12/20 02:03:25;;;;;;;;;;;;;;;;;;5131506;28;670;-61
2021/12/20 02:05:55;;;;;;;;;;;;;;;;;;5112220;28;1909;-61
2021/12/20 02:08:25;;;;;;;;;;;;;;;;;;5112850;28;859;-61
2021/12/20 02:10:54;;;;;;;;;;;;;;;;;;5130890;28;855;-61
2021/12/20 02:13:20;;;;;;;;;;;;;;;;;;5112717;28;750;-61
2021/12/20 02:15:45;;;;;;;;;;;;;;;;;;5131035;28;983;-61
2021/12/20 02:18:10;;;;;;;;;;;;;;;;;;5130890;28;822;-61
2021/12/20 02:20:36;;;;;;;;;;;;;;;;;;5131378;28;1006;-61
2021/12/20 02:23:02;;;;;;;;;;;;;;;;;;5130948;28;844;-61
2021/12/20 02:25:28;;;;;;;;;;;;;;;;;;5130942;28;1961;-61
2021/12/20 02:27:54;;;;;;;;;;;;;;;;;;5130243;28;742;-61
2021/12/20 02:38:25;;;;;;;;;;;;;;;;;;5135035;27;865;-61
2021/12/20 02:41:02;;;;;;;;;;;;;;;;;;5133953;27;838;-61
2021/12/20 02:43:29;;;;;;;;;;;;;;;;;;5116366;27;869;-61
2021/12/20 02:45:58;;;;;;;;;;;;;;;;;;5133834;27;1902;-61
2021/12/20 02:48:23;;;;;;;;;;;;;;;;;;5133990;27;1366;-61
2021/12/20 02:50:52;;;;;;;;;;;;;;;;;;5134052;27;1048;-61
2021/12/20 02:53:17;;;;;;;;;;;;;;;;;;5134709;27;958;-61
2021/12/20 02:55:43;;;;;;;;;;;;;;;;;;5134651;27;789;-61
2021/12/20 02:58:08;;;;;;;;;;;;;;;;;;5134643;27;927;-61
2021/12/20 03:00:33;;;;;;;;;;;;;;;;;;5134641;27;852;-61
2021/12/20 03:02:59;;;;;;;;;;;;;;;;;;5134093;27;978;-61
2021/12/20 03:05:24;;;;;;;;;;;;;;;;;;5134906;27;1914;-61
2021/12/20 03:07:52;;;;;;;;;;;;;;;;;;5133947;27;1026;-61
2021/12/20 03:10:19;;;;;;;;;;;;;;;;;;5116676;27;820;-61
2021/12/20 03:12:46;;;;;;;;;;;;;;;;;;5098934;27;785;-61
2021/12/20 03:15:16;;;;;;;;;;;;;;;;;;5134077;27;808;-61
2021/12/20 03:17:41;;;;;;;;;;;;;;;;;;5134560;27;848;-61
2021/12/20 03:20:07;;;;;;;;;;;;;;;;;;5115844;27;880;-61
2021/12/20 03:22:32;;;;;;;;;;;;;;;;;;5134049;27;1269;-61
2021/12/20 03:24:57;;;;;;;;;;;;;;;;;;5115066;27;1898;-61
2021/12/20 03:27:23;;;;;;;;;;;;;;;;;;5115165;27;1303;-61
2021/12/20 03:29:48;;;;;;;;;;;;;;;;;;5133458;27;996;-61
2021/12/20 03:32:14;;;;;;;;;;;;;;;;;;5133217;27;907;-61
2021/12/20 03:34:39;;;;;;;;;;;;;;;;;;5133334;27;899;-61
2021/12/20 03:37:04;;;;;;;;;;;;;;;;;;5132857;27;915;-61
2021/12/20 03:39:30;;;;;;;;;;;;;;;;;;5133401;27;761;-61
2021/12/20 03:41:55;;;;;;;;;;;;;;;;;;5132744;27;926;-61
2021/12/20 03:44:21;;;;;;;;;;;;;;;;;;5096654;27;1906;-61
2021/12/20 03:46:46;;;;;;;;;;;;;;;;;;5133094;27;1153;-61
2021/12/20 03:49:11;;;;;;;;;;;;;;;;;;5114725;27;924;-61
2021/12/20 03:51:36;;;;;;;;;;;;;;;;;;5132972;27;797;-61
2021/12/20 03:54:02;;;;;;;;;;;;;;;;;;5132848;27;847;-61
2021/12/20 03:56:27;;;;;;;;;;;;;;;;;;5132990;27;875;-61
2021/12/20 03:58:53;;;;;;;;;;;;;;;;;;5132663;27;892;-61
2021/12/20 04:01:18;;;;;;;;;;;;;;;;;;5132925;27;916;-60
2021/12/20 04:03:44;;;;;;;;;;;;;;;;;;5132896;27;1914;-61
2021/12/20 04:06:11;;;;;;;;;;;;;;;;;;5132545;27;924;-61
2021/12/20 04:08:36;;;;;;;;;;;;;;;;;;5132916;27;955;-61
2021/12/20 04:11:02;;;;;;;;;;;;;;;;;;5132309;27;942;-61
2021/12/20 04:13:28;;;;;;;;;;;;;;;;;;5133011;27;823;-61
2021/12/20 04:15:56;;;;;;;;;;;;;;;;;;5132267;27;1088;-61
2021/12/20 04:18:22;;;;;;;;;;;;;;;;;;5132280;27;907;-60
2021/12/20 04:20:48;;;;;;;;;;;;;;;;;;5132834;27;832;-60
2021/12/20 04:23:13;;;;;;;;;;;;;;;;;;5132564;27;816;-61
2021/12/20 04:25:39;;;;;;;;;;;;;;;;;;5132249;27;1905;-60
2021/12/20 04:28:04;;;;;;;;;;;;;;;;;;5132268;27;871;-60
2021/12/20 04:30:31;;;;;;;;;;;;;;;;;;5132477;27;950;-60
2021/12/20 04:32:57;;;;;;;;;;;;;;;;;;5132322;27;844;-61
2021/12/20 04:35:22;;;;;;;;;;;;;;;;;;5132484;27;970;-60
2021/12/20 04:37:49;;;;;;;;;;;;;;;;;;5132591;27;978;-60
2021/12/20 04:40:19;;;;;;;;;;;;;;;;;;5132905;27;844;-61
2021/12/20 04:42:45;;;;;;;;;;;;;;;;;;5132861;27;931;-61
2021/12/20 04:45:11;;;;;;;;;;;;;;;;;;5132278;27;1947;-60
2021/12/20 04:47:36;;;;;;;;;;;;;;;;;;5132566;27;1028;-61
2021/12/20 04:50:02;;;;;;;;;;;;;;;;;;5132627;27;753;-60
2021/12/20 04:52:28;;;;;;;;;;;;;;;;;;5132733;27;1002;-61
2021/12/20 04:54:53;;;;;;;;;;;;;;;;;;5132317;27;997;-61
2021/12/20 04:57:19;;;;;;;;;;;;;;;;;;5113977;27;777;-61
2021/12/20 04:59:44;;;;;;;;;;;;;;;;;;5132472;27;864;-61
2021/12/20 05:02:09;;;;;;;;;;;;;;;;;;5132152;27;1029;-61
2021/12/20 05:04:35;;;;;;;;;;;;;;;;;;5131905;27;1909;-60
2021/12/20 05:07:00;;;;;;;;;;;;;;;;;;5114203;27;828;-61
2021/12/20 05:09:28;;;;;;;;;;;;;;;;;;5131947;27;979;-60
2021/12/20 05:12:01;;;;;;;;;;;;;;;;;;5131792;27;881;-61
2021/12/20 05:14:26;;;;;;;;;;;;;;;;;;5131260;27;904;-60
2021/12/20 05:16:51;;;;;;;;;;;;;;;;;;5131052;27;923;-61
2021/12/20 05:19:16;;;;;;;;;;;;;;;;;;5131703;27;879;-61
2021/12/20 05:21:42;;;;;;;;;;;;;;;;;;5131464;27;946;-61
2021/12/20 05:24:07;;;;;;;;;;;;;;;;;;5130757;27;1978;-61
2021/12/20 05:26:32;;;;;;;;;;;;;;;;;;5131778;28;1041;-61
2021/12/20 05:28:58;;;;;;;;;;;;;;;;;;5130921;28;1142;-61
2021/12/20 05:31:23;;;;;;;;;;;;;;;;;;5131101;28;915;-60
2021/12/20 05:33:48;;;;;;;;;;;;;;;;;;5131179;28;935;-61
2021/12/20 05:36:13;;;;;;;;;;;;;;;;;;5112879;28;1024;-60
2021/12/20 05:38:39;;;;;;;;;;;;;;;;;;5131323;28;837;-61
2021/12/20 05:41:04;;;;;;;;;;;;;;;;;;5131432;28;876;-61
2021/12/20 05:43:30;;;;;;;;;;;;;;;;;;5112738;28;1254;-61
2021/12/20 05:45:55;;;;;;;;;;;;;;;;;;5131239;28;1898;-61
2021/12/20 05:48:20;;;;;;;;;;;;;;;;;;5130539;28;1153;-61
2021/12/20 05:50:46;;;;;;;;;;;;;;;;;;5112547;28;891;-61
2021/12/20 05:53:11;;;;;;;;;;;;;;;;;;5131170;28;749;-61
2021/12/20 05:55:36;;;;;;;;;;;;;;;;;;5130901;28;987;-61
2021/12/20 05:58:02;;;;;;;;;;;;;;;;;;5130736;28;903;-61
2021/12/20 06:00:27;;;;;;;;;;;;;;;;;;5112753;28;1562;-61
2021/12/20 06:02:53;;;;;;;;;;;;;;;;;;5130480;28;781;-61
2021/12/20 06:05:19;;;;;;;;;;;;;;;;;;5130922;28;1913;-60
2021/12/20 06:07:44;;;;;;;;;;;;;;;;;;5131886;27;955;-61
2021/12/20 06:10:12;;;;;;;;;;;;;;;;;;5134887;27;749;-61
2021/12/20 06:12:39;;;;;;;;;;;;;;;;;;5135033;27;837;-61
2021/12/20 06:15:04;;;;;;;;;;;;;;;;;;5134682;27;879;-60
2021/12/20 06:17:30;;;;;;;;;;;;;;;;;;5134594;27;967;-60
2021/12/20 06:19:55;;;;;;;;;;;;;;;;;;5134599;27;1064;-61
2021/12/20 06:22:20;;;;;;;;;;;;;;;;;;5134588;27;1217;-61
2021/12/20 06:24:45;;;;;;;;;;;;;;;;;;5138779;27;1986;-60
2021/12/20 06:27:11;;;;;;;;;;;;;;;;;;5136820;27;973;-61
2021/12/20 06:29:36;;;;;;;;;;;;;;;;;;5155626;27;780;-61
2021/12/20 06:32:02;;;;;;;;;;;;;;;;;;5155744;27;899;-61
2021/12/20 06:34:27;;;;;;;;;;;;;;;;;;5155032;27;860;-61
2021/12/20 06:36:52;;;;;;;;;;;;;;;;;;5155424;27;1037;-61
2021/12/20 06:39:17;;;;;;;;;;;;;;;;;;5155646;27;954;-60
2021/12/20 06:41:43;;;;;;;;;;;;;;;;;;5155421;27;1091;-60
2021/12/20 06:44:08;;;;;;;;;;;;;;;;;;5155579;27;1958;-60
2021/12/20 06:46:37;;;;;;;;;;;;;;;;;;5155019;27;1162;-60
2021/12/20 06:49:05;;;;;;;;;;;;;;;;;;5155432;27;812;-60
2021/12/20 06:51:31;;;;;;;;;;;;;;;;;;5136608;27;1214;-60
2021/12/20 06:53:56;;;;;;;;;;;;;;;;;;5154791;27;813;-61
2021/12/20 06:56:21;;;;;;;;;;;;;;;;;;5154630;27;891;-61
2021/12/20 06:58:46;;;;;;;;;;;;;;;;;;5154685;27;1010;-60
2021/12/20 07:01:12;;;;;;;;;;;;;;;;;;5154442;27;1030;-63
2021/12/20 07:03:37;;;;;;;;;;;;;;;;;;5154538;27;1111;-60
2021/12/20 07:06:02;;;;;;;;;;;;;;;;;;5154165;27;1913;-60
2021/12/20 07:08:28;;;;;;;;;;;;;;;;;;5154460;27;986;-61
2021/12/20 07:10:53;;;;;;;;;;;;;;;;;;5154390;27;871;-60
2021/12/20 07:13:19;;;;;;;;;;;;;;;;;;5154148;27;823;-60
2021/12/20 07:15:44;;;;;;;;;;;;;;;;;;5155071;27;1148;-60
2021/12/20 07:18:09;;;;;;;;;;;;;;;;;;5154755;27;765;-60
2021/12/20 07:20:35;;;;;;;;;;;;;;;;;;5154373;27;1045;-60
2021/12/20 07:23:00;;;;;;;;;;;;;;;;;;5154195;27;880;-60
2021/12/20 07:25:25;;;;;;;;;;;;;;;;;;5153686;27;1955;-60
2021/12/20 07:27:51;;;;;;;;;;;;;;;;;;5154111;27;649;-60
2021/12/20 07:30:16;;;;;;;;;;;;;;;;;;5153986;27;800;-60
2021/12/20 07:32:42;;;;;;;;;;;;;;;;;;5153480;27;1081;-60
2021/12/20 07:35:08;;;;;;;;;;;;;;;;;;5134160;27;1044;-60
2021/12/20 07:37:34;;;;;;;;;;;;;;;;;;5153762;27;862;-60
2021/12/20 07:39:59;;;;;;;;;;;;;;;;;;5153931;27;847;-60
2021/12/20 07:42:24;;;;;;;;;;;;;;;;;;5153813;27;824;-60
2021/12/20 07:44:50;;;;;;;;;;;;;;;;;;5153435;27;1898;-60
2021/12/20 07:47:15;;;;;;;;;;;;;;;;;;5154129;27;1283;-60
2021/12/20 07:49:41;;;;;;;;;;;;;;;;;;5135501;27;1308;-60
2021/12/20 07:52:07;;;;;;;;;;;;;;;;;;5153470;27;828;-60
2021/12/20 07:54:32;;;;;;;;;;;;;;;;;;5153668;27;812;-60
2021/12/20 07:56:58;;;;;;;;;;;;;;;;;;5153327;27;899;-61
2021/12/20 07:59:23;;;;;;;;;;;;;;;;;;5153460;27;836;-60
2021/12/20 08:01:49;;;;;;;;;;;;;;;;;;5153646;27;923;-60
2021/12/20 08:04:15;;;;;;;;;;;;;;;;;;5154348;27;1971;-60
2021/12/20 08:06:40;;;;;;;;;;;;;;;;;;5153928;27;863;-60
2021/12/20 08:09:05;;;;;;;;;;;;;;;;;;5153991;27;772;-60
2021/12/20 08:11:32;;;;;;;;;;;;;;;;;;5153758;27;1002;-60
2021/12/20 08:13:57;;;;;;;;;;;;;;;;;;5153898;27;942;-60
2021/12/20 08:16:22;;;;;;;;;;;;;;;;;;5153924;27;843;-60
2021/12/20 08:18:48;;;;;;;;;;;;;;;;;;5154028;27;1023;-60
2021/12/20 08:21:15;;;;;;;;;;;;;;;;;;5135572;27;962;-60
2021/12/20 08:23:40;;;;;;;;;;;;;;;;;;5153410;27;1069;-60
2021/12/20 08:26:07;;;;;;;;;;;;;;;;;;5153703;27;1963;-60
2021/12/20 08:28:32;;;;;;;;;;;;;;;;;;5153132;27;1030;-60
2021/12/20 08:30:57;;;;;;;;;;;;;;;;;;5153128;27;824;-61
2021/12/20 08:33:22;;;;;;;;;;;;;;;;;;5153458;27;911;-61
2021/12/20 08:35:49;;;;;;;;;;;;;;;;;;5153286;27;1025;-61
2021/12/20 08:38:19;;;;;;;;;;;;;;;;;;5135952;27;830;-61
2021/12/20 08:40:45;;;;;;;;;;;;;;;;;;5153218;27;1011;-61
2021/12/20 08:43:10;;;;;;;;;;;;;;;;;;5153485;27;1014;-61
2021/12/20 08:45:35;;;;;;;;;;;;;;;;;;5151760;27;1978;-61
2021/12/20 08:48:01;;;;;;;;;;;;;;;;;;5153193;27;1102;-61
2021/12/20 08:50:26;;;;;;;;;;;;;;;;;;5152983;27;895;-61
2021/12/20 08:52:52;;;;;;;;;;;;;;;;;;5152727;27;809;-61
2021/12/20 08:55:17;;;;;;;;;;;;;;;;;;5152896;27;821;-61
2021/12/20 08:57:43;;;;;;;;;;;;;;;;;;5152093;27;899;-61
2021/12/20 09:00:10;;;;;;;;;;;;;;;;;;5152408;27;962;-61
2021/12/20 09:02:36;;;;;;;;;;;;;;;;;;5133398;27;1198;-61
2021/12/20 09:05:01;;;;;;;;;;;;;;;;;;5133655;27;1986;-61
2021/12/20 09:07:27;;;;;;;;;;;;;;;;;;5152447;27;915;-61
2021/12/20 09:09:52;;;;;;;;;;;;;;;;;;5151845;27;868;-61
2021/12/20 09:12:21;;;;;;;;;;;;;;;;;;5152938;27;662;-61
2021/12/20 09:14:47;;;;;;;;;;;;;;;;;;5151708;27;1119;-60
2021/12/20 09:17:12;;;;;;;;;;;;;;;;;;5116225;27;1150;-60
2021/12/20 09:19:37;;;;;;;;;;;;;;;;;;5131397;27;935;-61
2021/12/20 09:22:05;;;;;;;;;;;;;;;;;;5131084;27;836;-61
2021/12/20 09:24:31;;;;;;;;;;;;;;;;;;5130392;27;1898;-61
2021/12/20 09:26:57;;;;;;;;;;;;;;;;;;5131430;28;911;-61
2021/12/20 09:29:22;;;;;;;;;;;;;;;;;;5113257;28;795;-61
2021/12/20 09:31:47;;;;;;;;;;;;;;;;;;5131276;28;950;-61
2021/12/20 09:34:12;;;;;;;;;;;;;;;;;;5131260;28;1004;-61
2021/12/20 09:36:37;;;;;;;;;;;;;;;;;;5131419;28;1061;-61
2021/12/20 09:39:07;;;;;;;;;;;;;;;;;;5131405;28;927;-61
2021/12/20 09:44:01;;;;;;;;;;;;;;;;;;5134451;27;1967;-61
2021/12/20 09:46:28;;;;;;;;;;;;;;;;;;5135614;27;1297;-61
2021/12/20 09:48:53;;;;;;;;;;;;;;;;;;5135324;27;852;-61
2021/12/20 09:51:19;;;;;;;;;;;;;;;;;;5135644;27;643;-61
2021/12/20 09:53:44;;;;;;;;;;;;;;;;;;5135877;27;895;-61
2021/12/20 09:56:10;;;;;;;;;;;;;;;;;;5135223;27;899;-60
2021/12/20 09:58:37;;;;;;;;;;;;;;;;;;5135405;27;840;-61
2021/12/20 10:01:03;;;;;;;;;;;;;;;;;;5135540;27;911;-61
2021/12/20 10:03:29;;;;;;;;;;;;;;;;;;5135897;27;981;-61
2021/12/20 10:05:56;;;;;;;;;;;;;;;;;;5135377;27;1917;-61
2021/12/20 10:08:31;;;;;;;;;;;;;;;;;;5135592;27;1229;-61
2021/12/20 10:10:57;;;;;;;;;;;;;;;;;;5135142;27;1077;-61
2021/12/20 10:13:24;;;;;;;;;;;;;;;;;;5135885;27;876;-60
2021/12/20 10:15:50;;;;;;;;;;;;;;;;;;5134426;27;843;-61
2021/12/20 10:18:16;;;;;;;;;;;;;;;;;;5135919;27;899;-61
2021/12/20 10:20:42;;;;;;;;;;;;;;;;;;5135108;27;946;-61
2021/12/20 10:23:12;;;;;;;;;;;;;;;;;;5135037;27;828;-61
2021/12/20 10:25:38;;;;;;;;;;;;;;;;;;5116413;27;1973;-60
2021/12/20 10:28:05;;;;;;;;;;;;;;;;;;5134698;27;930;-60
2021/12/20 10:30:32;;;;;;;;;;;;;;;;;;5134922;27;832;-61
2021/12/20 10:32:57;;;;;;;;;;;;;;;;;;5134561;27;824;-61
2021/12/20 10:35:26;;;;;;;;;;;;;;;;;;5134675;27;894;-60
2021/12/20 10:37:55;;;;;;;;;;;;;;;;;;5133752;27;828;-61
2021/12/20 10:40:20;;;;;;;;;;;;;;;;;;5116171;27;1054;-61
2021/12/20 10:42:45;;;;;;;;;;;;;;;;;;5134939;27;966;-61
2021/12/20 10:45:15;;;;;;;;;;;;;;;;;;5134523;27;1909;-60
2021/12/20 10:47:42;;;;;;;;;;;;;;;;;;5132987;27;1217;-60
2021/12/20 10:50:26;;;;;;;;;;;;;;;;;;5133039;28;852;-60
2021/12/20 10:52:52;;;;;;;;;;;;;;;;;;5132743;28;821;-60
2021/12/20 10:55:41;;;;;;;;;;;;;;;;;;5132949;27;1112;-60
2021/12/20 10:58:29;;;;;;;;;;;;;;;;;;5133421;28;1448;-61
2021/12/20 11:01:42;;;;;;;;;;;;;;;;;;5132250;28;868;-60
2021/12/20 11:04:12;;;;;;;;;;;;;;;;;;5132726;28;1918;-60
2021/12/20 11:09:09;;;;;;;;;;;;;;;;;;5132459;28;816;-60
2021/12/20 11:11:36;;;;;;;;;;;;;;;;;;5132789;28;911;-61
2021/12/20 11:14:03;;;;;;;;;;;;;;;;;;5132025;28;892;-60
2021/12/20 11:16:37;;;;;;;;;;;;;;;;;;5132391;28;825;-60
2021/12/20 11:19:19;;;;;;;;;;;;;;;;;;5132162;28;920;-60
2021/12/20 11:21:49;;;;;;;;;;;;;;;;;;5132346;28;821;-60
2021/12/20 11:24:16;;;;;;;;;;;;;;;;;;5132353;28;1893;-60
2021/12/20 11:26:42;;;;;;;;;;;;;;;;;;5132390;28;813;-60
2021/12/20 11:29:08;;;;;;;;;;;;;;;;;;5113460;28;1119;-61
2021/12/20 11:31:33;;;;;;;;;;;;;;;;;;5132475;28;875;-61
2021/12/20 11:33:59;;;;;;;;;;;;;;;;;;5131642;28;832;-61
2021/12/20 11:36:25;;;;;;;;;;;;;;;;;;5114317;28;977;-61
2021/12/20 11:38:51;;;;;;;;;;;;;;;;;;5132073;28;1201;-61
2021/12/20 11:41:16;;;;;;;;;;;;;;;;;;5132653;28;963;-61
2021/12/20 11:43:42;;;;;;;;;;;;;;;;;;5132042;28;967;-61
2021/12/20 11:46:07;;;;;;;;;;;;;;;;;;5132168;28;1967;-61
2021/12/20 11:48:33;;;;;;;;;;;;;;;;;;5067879;28;1235756;-61
2021/12/20 11:50:59;;;;;;;;;;;;;;;;;;5112315;28;1261;-61
2021/12/20 11:53:33;;;;;;;;;;;;;;;;;;5112847;28;1178;-61
2021/12/20 11:55:59;;;;;;;;;;;;;;;;;;5123872;27;1219;-61
2021/12/20 11:58:25;;;;;;;;;;;;;;;;;;5130958;27;1229;-61
2021/12/20 12:00:52;;;;;;;;;;;;;;;;;;5128799;27;1146;-61
2021/12/20 12:03:26;;;;;;;;;;;;;;;;;;5125790;27;1110;-62
2021/12/20 12:05:55;;;;;;;;;;;;;;;;;;5110659;28;1984;-61
2021/12/20 12:08:20;;;;;;;;;;;;;;;;;;5112415;28;831;-61
2021/12/20 12:10:46;;;;;;;;;;;;;;;;;;5112666;28;761;-61
2021/12/20 12:13:15;;;;;;;;;;;;;;;;;;5112038;28;966;-61
2021/12/20 12:15:52;;;;;;;;;;;;;;;;;;5111808;28;943;-61
2021/12/20 12:18:17;;;;;;;;;;;;;;;;;;5111043;28;864;-61
2021/12/20 12:20:52;;;;;;;;;;;;;;;;;;5112029;28;907;-61
2021/12/20 12:23:22;;;;;;;;;;;;;;;;;;5112378;28;916;-61
2021/12/20 12:25:49;;;;;;;;;;;;;;;;;;5112182;28;2001;-61
2021/12/20 12:28:16;;;;;;;;;;;;;;;;;;5111630;28;876;-61
2021/12/20 12:30:43;;;;;;;;;;;;;;;;;;5110506;28;801;-61
2021/12/20 12:33:11;;;;;;;;;;;;;;;;;;5111689;28;912;-61
2021/12/20 12:35:39;;;;;;;;;;;;;;;;;;5112050;28;1029;-61
2021/12/20 12:38:20;;;;;;;;;;;;;;;;;;5111046;28;804;-61
2021/12/20 12:40:49;;;;;;;;;;;;;;;;;;5111676;28;824;-62
2021/12/20 12:43:15;;;;;;;;;;;;;;;;;;5112181;28;816;-61
2021/12/20 12:46:06;;;;;;;;;;;;;;;;;;5111812;28;1964;-61
2021/12/20 12:48:43;;;;;;;;;;;;;;;;;;5129530;27;2095;-61
2021/12/20 12:51:18;;;;;;;;;;;;;;;;;;5113126;27;1333;-61
2021/12/20 12:53:45;;;;;;;;;;;;;;;;;;5113637;27;1234;-61
2021/12/20 12:56:28;;;;;;;;;;;;;;;;;;5131697;27;1065;-61
2021/12/20 12:59:12;;;;;;;;;;;;;;;;;;5131712;27;824;-61
2021/12/20 13:01:38;;;;;;;;;;;;;;;;;;5131337;27;903;-61
2021/12/20 13:04:04;;;;;;;;;;;;;;;;;;5131155;27;1313;-61
2021/12/20 13:06:29;;;;;;;;;;;;;;;;;;5131660;27;1977;-61
2021/12/20 13:08:55;;;;;;;;;;;;;;;;;;5131036;27;927;-61
2021/12/20 13:11:21;;;;;;;;;;;;;;;;;;5131799;27;1091;-61
2021/12/20 13:13:53;;;;;;;;;;;;;;;;;;5131782;27;1113;-61
2021/12/20 13:16:24;;;;;;;;;;;;;;;;;;5131603;27;836;-61
2021/12/20 13:18:52;;;;;;;;;;;;;;;;;;5131547;27;825;-61
2021/12/20 13:21:21;;;;;;;;;;;;;;;;;;5131260;27;850;-61
2021/12/20 13:23:48;;;;;;;;;;;;;;;;;;5112977;28;1178;-61
2021/12/20 13:26:20;;;;;;;;;;;;;;;;;;5113376;27;1901;-61
2021/12/20 13:28:50;;;;;;;;;;;;;;;;;;5113942;28;813;-61
2021/12/20 13:31:15;;;;;;;;;;;;;;;;;;5131602;28;824;-60
2021/12/20 13:33:48;;;;;;;;;;;;;;;;;;5131830;28;880;-60
2021/12/20 13:36:15;;;;;;;;;;;;;;;;;;5113417;28;1604;-62
2021/12/20 13:38:42;;;;;;;;;;;;;;;;;;5131655;28;839;-61
2021/12/20 13:41:08;;;;;;;;;;;;;;;;;;5131385;28;879;-62
2021/12/20 13:43:39;;;;;;;;;;;;;;;;;;5131967;28;1035;-62
2021/12/20 13:46:40;;;;;;;;;;;;;;;;;;5131462;28;1905;-62
2021/12/20 13:49:06;;;;;;;;;;;;;;;;;;5131378;28;874;-62
2021/12/20 13:51:31;;;;;;;;;;;;;;;;;;5131868;28;832;-61
2021/12/20 13:53:56;;;;;;;;;;;;;;;;;;5131625;28;886;-62
2021/12/20 13:56:21;;;;;;;;;;;;;;;;;;5132170;28;883;-62
2021/12/20 13:58:48;;;;;;;;;;;;;;;;;;5132018;28;812;-62
2021/12/20 14:01:14;;;;;;;;;;;;;;;;;;5113434;28;844;-61
2021/12/20 14:03:40;;;;;;;;;;;;;;;;;;5132093;28;626;-62
2021/12/20 14:06:07;;;;;;;;;;;;;;;;;;5131463;28;1918;-61
2021/12/20 14:08:32;;;;;;;;;;;;;;;;;;5131642;28;809;-62
2021/12/20 14:10:57;;;;;;;;;;;;;;;;;;5130802;28;781;-61
2021/12/20 14:13:27;;;;;;;;;;;;;;;;;;5131531;28;898;-62
2021/12/20 14:16:03;;;;;;;;;;;;;;;;;;5131178;28;1063;-61
2021/12/20 14:18:37;;;;;;;;;;;;;;;;;;5132195;28;913;-62
2021/12/20 14:21:04;;;;;;;;;;;;;;;;;;5131087;28;742;-62
2021/12/20 14:23:34;;;;;;;;;;;;;;;;;;5131767;28;836;-62
2021/12/20 14:26:00;;;;;;;;;;;;;;;;;;5130988;28;1902;-62
2021/12/20 14:28:26;;;;;;;;;;;;;;;;;;5131984;27;895;-61
2021/12/20 14:30:56;;;;;;;;;;;;;;;;;;5134731;27;793;-62
2021/12/20 14:33:25;;;;;;;;;;;;;;;;;;5135405;27;941;-60
2021/12/20 14:35:52;;;;;;;;;;;;;;;;;;5135536;27;895;-60
2021/12/20 14:38:31;;;;;;;;;;;;;;;;;;5134487;27;967;-60
2021/12/20 14:40:57;;;;;;;;;;;;;;;;;;5134353;27;836;-60
2021/12/20 14:43:27;;;;;;;;;;;;;;;;;;5134577;27;757;-60
2021/12/20 14:46:19;;;;;;;;;;;;;;;;;;5134591;27;1900;-60
2021/12/20 14:48:49;;;;;;;;;;;;;;;;;;5134887;27;871;-60
2021/12/20 14:51:15;;;;;;;;;;;;;;;;;;5115487;27;836;-60
2021/12/20 14:53:40;;;;;;;;;;;;;;;;;;5134334;27;844;-60
2021/12/20 14:56:07;;;;;;;;;;;;;;;;;;5133698;27;970;-60
2021/12/20 14:58:32;;;;;;;;;;;;;;;;;;5133498;27;765;-60
2021/12/20 15:01:00;;;;;;;;;;;;;;;;;;5131868;27;1053;-60
2021/12/20 15:03:25;;;;;;;;;;;;;;;;;;5134327;27;916;-60
2021/12/20 15:06:05;;;;;;;;;;;;;;;;;;5134248;27;1988;-60
2021/12/20 15:08:31;;;;;;;;;;;;;;;;;;5115124;27;1041;-60
2021/12/20 15:10:56;;;;;;;;;;;;;;;;;;5114772;27;908;-60
2021/12/20 15:13:21;;;;;;;;;;;;;;;;;;5133584;27;871;-60
2021/12/20 15:15:47;;;;;;;;;;;;;;;;;;5134972;27;867;-60
2021/12/20 15:18:12;;;;;;;;;;;;;;;;;;5133944;27;895;-60
2021/12/20 15:20:37;;;;;;;;;;;;;;;;;;5134070;27;1070;-60
2021/12/20 15:23:03;;;;;;;;;;;;;;;;;;5133739;27;878;-60
2021/12/20 15:25:28;;;;;;;;;;;;;;;;;;5134106;27;1901;-60
2021/12/20 15:27:55;;;;;;;;;;;;;;;;;;5133817;27;903;-59
2021/12/20 15:30:21;;;;;;;;;;;;;;;;;;5133961;27;848;-60
2021/12/20 15:32:47;;;;;;;;;;;;;;;;;;5115768;27;895;-60
2021/12/20 15:35:13;;;;;;;;;;;;;;;;;;5133419;27;922;-60
2021/12/20 15:37:38;;;;;;;;;;;;;;;;;;5134004;27;914;-60
2021/12/20 15:40:04;;;;;;;;;;;;;;;;;;5132246;27;891;-60
2021/12/20 15:42:32;;;;;;;;;;;;;;;;;;5133736;27;843;-60
2021/12/20 15:45:00;;;;;;;;;;;;;;;;;;5133606;27;1956;-60
2021/12/20 15:47:28;;;;;;;;;;;;;;;;;;5133292;27;1290;-60
2021/12/20 15:49:53;;;;;;;;;;;;;;;;;;5133929;27;836;-60
2021/12/20 15:52:18;;;;;;;;;;;;;;;;;;5097280;27;1580;-60
2021/12/20 15:54:44;;;;;;;;;;;;;;;;;;5114859;27;1277;-60
2021/12/20 15:57:09;;;;;;;;;;;;;;;;;;5136381;27;1803;-60
2021/12/20 15:59:34;;;;;;;;;;;;;;;;;;5152578;27;840;-60
2021/12/20 16:01:59;;;;;;;;;;;;;;;;;;5152346;27;745;-60
2021/12/20 16:04:25;;;;;;;;;;;;;;;;;;5153423;27;1983;-60
2021/12/20 16:06:50;;;;;;;;;;;;;;;;;;5154134;27;918;-60
2021/12/20 16:09:15;;;;;;;;;;;;;;;;;;5153987;27;954;-60
2021/12/20 16:11:41;;;;;;;;;;;;;;;;;;5154142;27;939;-60
2021/12/20 16:14:06;;;;;;;;;;;;;;;;;;5153466;27;1083;-60
2021/12/20 16:16:32;;;;;;;;;;;;;;;;;;5153851;27;978;-60
2021/12/20 16:18:57;;;;;;;;;;;;;;;;;;5153759;27;994;-61
2021/12/20 16:21:22;;;;;;;;;;;;;;;;;;5134792;27;919;-61
2021/12/20 16:23:47;;;;;;;;;;;;;;;;;;5154163;27;999;-61
2021/12/20 16:26:12;;;;;;;;;;;;;;;;;;5153132;27;1901;-61
2021/12/20 16:28:38;;;;;;;;;;;;;;;;;;5153754;27;1059;-60
2021/12/20 16:31:03;;;;;;;;;;;;;;;;;;5135039;27;898;-61
2021/12/20 16:33:33;;;;;;;;;;;;;;;;;;5153106;27;911;-61
2021/12/20 16:35:58;;;;;;;;;;;;;;;;;;5153201;27;919;-61
2021/12/20 16:38:24;;;;;;;;;;;;;;;;;;5153054;27;1042;-61
2021/12/20 16:40:50;;;;;;;;;;;;;;;;;;5152382;27;1214;-61
2021/12/20 16:43:16;;;;;;;;;;;;;;;;;;5152568;27;879;-61
2021/12/20 16:48:19;;;;;;;;;;;;;;;;;;5151599;27;1130;-61
2021/12/20 16:50:45;;;;;;;;;;;;;;;;;;5152185;27;932;-61
2021/12/20 16:53:10;;;;;;;;;;;;;;;;;;5150084;27;1034;-61
2021/12/20 16:55:36;;;;;;;;;;;;;;;;;;5151645;27;564;-62
2021/12/20 16:58:02;;;;;;;;;;;;;;;;;;5152368;27;900;-61
2021/12/20 17:00:29;;;;;;;;;;;;;;;;;;5152402;27;954;-62
2021/12/20 17:03:01;;;;;;;;;;;;;;;;;;5133642;27;1252;-62
2021/12/20 17:08:10;;;;;;;;;;;;;;;;;;5152107;27;708;-61
2021/12/20 17:10:35;;;;;;;;;;;;;;;;;;5133241;27;1002;-62
2021/12/20 17:13:00;;;;;;;;;;;;;;;;;;5151451;27;855;-62
2021/12/20 17:15:26;;;;;;;;;;;;;;;;;;5133439;27;1168;-62
2021/12/20 17:17:51;;;;;;;;;;;;;;;;;;5152311;27;889;-62
2021/12/20 17:20:17;;;;;;;;;;;;;;;;;;5133485;27;864;-62
2021/12/20 17:22:42;;;;;;;;;;;;;;;;;;5152383;27;1555;-62
2021/12/20 17:25:08;;;;;;;;;;;;;;;;;;5151876;27;1960;-62
2021/12/20 17:27:33;;;;;;;;;;;;;;;;;;5151981;27;824;-62
2021/12/20 17:29:58;;;;;;;;;;;;;;;;;;5152431;27;851;-62
2021/12/20 17:32:23;;;;;;;;;;;;;;;;;;5152449;27;1065;-62
2021/12/20 17:34:49;;;;;;;;;;;;;;;;;;5152426;27;1011;-62
2021/12/20 17:37:14;;;;;;;;;;;;;;;;;;5152385;27;990;-62
2021/12/20 17:39:39;;;;;;;;;;;;;;;;;;5152595;27;930;-61